sensor_id;sensor_type;location;lat;lon;timestamp;P1;durP1;ratioP1;P2;durP2;ratioP2
18883;SDS011;9574;47.282;9.640;2022-12-18T00:02:00;6.23;;;2.87;;
18883;SDS011;9574;47.282;9.640;2022-12-18T00:04:27;8.00;;;3.33;;
18883;SDS011;9574;47.282;9.640;2022-12-18T00:06:54;9.13;;;3.77;;
18883;SDS011;9574;47.282;9.640;2022-12-18T00:09:21;4.63;;;2.63;;
18883;SDS011;9574;47.282;9.640;2022-12-18T00:11:48;5.67;;;3.10;;
18883;SDS011;9574;47.282;9.640;2022-12-18T00:14:15;6.13;;;3.03;;
18883;SDS011;9574;47.282;9.640;2022-12-18T00:16:44;6.27;;;3.13;;
18883;SDS011;9574;47.282;9.640;2022-12-18T00:19:12;3.80;;;2.40;;
18883;SDS011;9574;47.282;9.640;2022-12-18T00:21:40;6.77;;;3.20;;
18883;SDS011;9574;47.282;9.640;2022-12-18T00:24:08;7.87;;;3.17;;
18883;SDS011;9574;47.282;9.640;2022-12-18T00:26:36;6.00;;;3.13;;
18883;SDS011;9574;47.282;9.640;2022-12-18T00:29:05;6.43;;;3.03;;
18883;SDS011;9574;47.282;9.640;2022-12-18T00:31:34;9.83;;;3.23;;
18883;SDS011;9574;47.282;9.640;2022-12-18T00:34:03;6.57;;;3.60;;
18883;SDS011;9574;47.282;9.640;2022-12-18T00:36:31;4.77;;;2.87;;
18883;SDS011;9574;47.282;9.640;2022-12-18T00:38:59;6.47;;;3.17;;
18883;SDS011;9574;47.282;9.640;2022-12-18T00:41:27;4.60;;;2.90;;
18883;SDS011;9574;47.282;9.640;2022-12-18T00:44:13;7.17;;;3.20;;
18883;SDS011;9574;47.282;9.640;2022-12-18T00:46:41;3.33;;;2.40;;
18883;SDS011;9574;47.282;9.640;2022-12-18T00:49:11;5.47;;;2.60;;
18883;SDS011;9574;47.282;9.640;2022-12-18T00:51:38;6.90;;;3.10;;
18883;SDS011;9574;47.282;9.640;2022-12-18T00:54:05;4.73;;;2.50;;
18883;SDS011;9574;47.282;9.640;2022-12-18T00:56:32;4.17;;;2.77;;
18883;SDS011;9574;47.282;9.640;2022-12-18T00:59:01;5.47;;;2.50;;
18883;SDS011;9574;47.282;9.640;2022-12-18T01:01:27;5.67;;;2.80;;
18883;SDS011;9574;47.282;9.640;2022-12-18T01:03:54;2.60;;;2.33;;
18883;SDS011;9574;47.282;9.640;2022-12-18T01:06:24;5.63;;;3.07;;
18883;SDS011;9574;47.282;9.640;2022-12-18T01:08:51;4.30;;;2.40;;
18883;SDS011;9574;47.282;9.640;2022-12-18T01:11:19;5.83;;;3.10;;
18883;SDS011;9574;47.282;9.640;2022-12-18T01:13:47;7.10;;;3.30;;
18883;SDS011;9574;47.282;9.640;2022-12-18T01:16:15;4.33;;;2.57;;
18883;SDS011;9574;47.282;9.640;2022-12-18T01:18:43;5.10;;;2.77;;
18883;SDS011;9574;47.282;9.640;2022-12-18T01:21:11;7.00;;;3.33;;
18883;SDS011;9574;47.282;9.640;2022-12-18T01:23:44;7.50;;;3.00;;
18883;SDS011;9574;47.282;9.640;2022-12-18T01:26:13;6.00;;;3.40;;
18883;SDS011;9574;47.282;9.640;2022-12-18T01:28:41;10.07;;;3.50;;
18883;SDS011;9574;47.282;9.640;2022-12-18T01:31:10;5.80;;;3.30;;
18883;SDS011;9574;47.282;9.640;2022-12-18T01:33:39;6.53;;;3.20;;
18883;SDS011;9574;47.282;9.640;2022-12-18T01:36:06;7.47;;;3.87;;
18883;SDS011;9574;47.282;9.640;2022-12-18T01:38:34;6.93;;;3.90;;
18883;SDS011;9574;47.282;9.640;2022-12-18T01:41:02;5.80;;;3.57;;
18883;SDS011;9574;47.282;9.640;2022-12-18T01:43:43;7.20;;;3.50;;
18883;SDS011;9574;47.282;9.640;2022-12-18T01:46:12;3.40;;;2.83;;
18883;SDS011;9574;47.282;9.640;2022-12-18T01:48:39;5.47;;;2.90;;
18883;SDS011;9574;47.282;9.640;2022-12-18T01:51:07;4.40;;;2.90;;
18883;SDS011;9574;47.282;9.640;2022-12-18T01:53:37;4.40;;;2.90;;
18883;SDS011;9574;47.282;9.640;2022-12-18T01:56:07;5.50;;;2.80;;
18883;SDS011;9574;47.282;9.640;2022-12-18T01:58:39;4.87;;;3.10;;
18883;SDS011;9574;47.282;9.640;2022-12-18T02:01:12;8.70;;;3.80;;
18883;SDS011;9574;47.282;9.640;2022-12-18T02:03:40;3.73;;;2.77;;
18883;SDS011;9574;47.282;9.640;2022-12-18T02:06:10;7.67;;;3.33;;
18883;SDS011;9574;47.282;9.640;2022-12-18T02:08:43;6.20;;;3.57;;
18883;SDS011;9574;47.282;9.640;2022-12-18T02:11:26;10.67;;;3.07;;
18883;SDS011;9574;47.282;9.640;2022-12-18T02:14:04;5.13;;;3.17;;
18883;SDS011;9574;47.282;9.640;2022-12-18T02:16:43;5.40;;;3.13;;
18883;SDS011;9574;47.282;9.640;2022-12-18T02:19:16;5.43;;;2.73;;
18883;SDS011;9574;47.282;9.640;2022-12-18T02:22:04;5.87;;;3.07;;
18883;SDS011;9574;47.282;9.640;2022-12-18T02:24:42;9.87;;;3.60;;
18883;SDS011;9574;47.282;9.640;2022-12-18T02:27:21;6.00;;;3.30;;
18883;SDS011;9574;47.282;9.640;2022-12-18T02:29:50;8.07;;;3.97;;
18883;SDS011;9574;47.282;9.640;2022-12-18T02:32:20;8.37;;;3.83;;
18883;SDS011;9574;47.282;9.640;2022-12-18T02:34:52;17.07;;;4.43;;
18883;SDS011;9574;47.282;9.640;2022-12-18T02:37:21;13.03;;;5.27;;
18883;SDS011;9574;47.282;9.640;2022-12-18T02:39:52;9.00;;;4.23;;
18883;SDS011;9574;47.282;9.640;2022-12-18T02:42:22;7.17;;;4.50;;
18883;SDS011;9574;47.282;9.640;2022-12-18T02:44:50;9.40;;;4.80;;
18883;SDS011;9574;47.282;9.640;2022-12-18T02:47:19;8.27;;;4.47;;
18883;SDS011;9574;47.282;9.640;2022-12-18T02:49:50;10.50;;;4.67;;
18883;SDS011;9574;47.282;9.640;2022-12-18T02:52:25;9.13;;;4.00;;
18883;SDS011;9574;47.282;9.640;2022-12-18T02:55:00;4.30;;;2.70;;
18883;SDS011;9574;47.282;9.640;2022-12-18T02:57:40;4.57;;;2.87;;
18883;SDS011;9574;47.282;9.640;2022-12-18T03:00:13;10.50;;;4.20;;
18883;SDS011;9574;47.282;9.640;2022-12-18T03:02:45;15.40;;;5.50;;
18883;SDS011;9574;47.282;9.640;2022-12-18T03:05:15;15.23;;;5.97;;
18883;SDS011;9574;47.282;9.640;2022-12-18T03:07:47;12.27;;;5.97;;
18883;SDS011;9574;47.282;9.640;2022-12-18T03:10:19;14.70;;;5.97;;
18883;SDS011;9574;47.282;9.640;2022-12-18T03:12:52;12.20;;;6.43;;
18883;SDS011;9574;47.282;9.640;2022-12-18T03:15:25;12.33;;;5.17;;
18883;SDS011;9574;47.282;9.640;2022-12-18T03:17:57;9.27;;;4.47;;
18883;SDS011;9574;47.282;9.640;2022-12-18T03:20:29;9.80;;;4.63;;
18883;SDS011;9574;47.282;9.640;2022-12-18T03:23:02;8.43;;;4.00;;
18883;SDS011;9574;47.282;9.640;2022-12-18T03:25:33;7.90;;;4.27;;
18883;SDS011;9574;47.282;9.640;2022-12-18T03:28:05;9.23;;;5.43;;
18883;SDS011;9574;47.282;9.640;2022-12-18T03:30:34;10.23;;;5.03;;
18883;SDS011;9574;47.282;9.640;2022-12-18T03:33:05;10.03;;;4.33;;
18883;SDS011;9574;47.282;9.640;2022-12-18T03:35:36;9.17;;;4.17;;
18883;SDS011;9574;47.282;9.640;2022-12-18T03:38:05;7.37;;;3.87;;
18883;SDS011;9574;47.282;9.640;2022-12-18T03:40:35;9.27;;;4.00;;
18883;SDS011;9574;47.282;9.640;2022-12-18T03:43:10;7.07;;;4.00;;
18883;SDS011;9574;47.282;9.640;2022-12-18T03:45:46;4.10;;;2.97;;
18883;SDS011;9574;47.282;9.640;2022-12-18T03:48:18;6.47;;;2.87;;
18883;SDS011;9574;47.282;9.640;2022-12-18T03:50:51;6.53;;;3.13;;
18883;SDS011;9574;47.282;9.640;2022-12-18T03:53:24;6.57;;;3.30;;
18883;SDS011;9574;47.282;9.640;2022-12-18T03:55:59;3.87;;;2.67;;
18883;SDS011;9574;47.282;9.640;2022-12-18T03:58:29;3.60;;;2.67;;
18883;SDS011;9574;47.282;9.640;2022-12-18T04:01:00;10.20;;;5.37;;
18883;SDS011;9574;47.282;9.640;2022-12-18T04:03:29;12.30;;;5.70;;
18883;SDS011;9574;47.282;9.640;2022-12-18T04:05:59;13.83;;;5.77;;
18883;SDS011;9574;47.282;9.640;2022-12-18T04:08:28;17.70;;;7.73;;
18883;SDS011;9574;47.282;9.640;2022-12-18T04:10:55;22.13;;;7.63;;
18883;SDS011;9574;47.282;9.640;2022-12-18T04:13:23;17.63;;;6.93;;
18883;SDS011;9574;47.282;9.640;2022-12-18T04:15:51;17.70;;;7.63;;
18883;SDS011;9574;47.282;9.640;2022-12-18T04:18:18;19.90;;;7.73;;
18883;SDS011;9574;47.282;9.640;2022-12-18T04:20:45;13.07;;;6.03;;
18883;SDS011;9574;47.282;9.640;2022-12-18T04:23:12;14.80;;;7.37;;
18883;SDS011;9574;47.282;9.640;2022-12-18T04:25:39;13.63;;;6.20;;
18883;SDS011;9574;47.282;9.640;2022-12-18T04:28:06;19.60;;;7.43;;
18883;SDS011;9574;47.282;9.640;2022-12-18T04:30:33;19.50;;;7.77;;
18883;SDS011;9574;47.282;9.640;2022-12-18T04:33:02;17.87;;;7.90;;
18883;SDS011;9574;47.282;9.640;2022-12-18T04:35:29;16.10;;;7.00;;
18883;SDS011;9574;47.282;9.640;2022-12-18T04:37:56;13.20;;;6.50;;
18883;SDS011;9574;47.282;9.640;2022-12-18T04:40:23;14.37;;;6.27;;
18883;SDS011;9574;47.282;9.640;2022-12-18T04:42:50;19.80;;;7.03;;
18883;SDS011;9574;47.282;9.640;2022-12-18T04:45:17;13.97;;;6.87;;
18883;SDS011;9574;47.282;9.640;2022-12-18T04:47:44;16.37;;;7.07;;
18883;SDS011;9574;47.282;9.640;2022-12-18T04:50:12;13.10;;;6.73;;
18883;SDS011;9574;47.282;9.640;2022-12-18T04:52:39;15.73;;;6.70;;
18883;SDS011;9574;47.282;9.640;2022-12-18T04:55:06;18.77;;;6.40;;
18883;SDS011;9574;47.282;9.640;2022-12-18T04:57:33;22.13;;;6.77;;
18883;SDS011;9574;47.282;9.640;2022-12-18T05:00:00;16.87;;;7.53;;
18883;SDS011;9574;47.282;9.640;2022-12-18T05:02:27;24.67;;;8.13;;
18883;SDS011;9574;47.282;9.640;2022-12-18T05:04:54;12.57;;;6.63;;
18883;SDS011;9574;47.282;9.640;2022-12-18T05:07:23;24.00;;;7.73;;
18883;SDS011;9574;47.282;9.640;2022-12-18T05:09:50;23.03;;;7.10;;
18883;SDS011;9574;47.282;9.640;2022-12-18T05:12:17;34.70;;;8.63;;
18883;SDS011;9574;47.282;9.640;2022-12-18T05:14:44;17.43;;;6.93;;
18883;SDS011;9574;47.282;9.640;2022-12-18T05:17:10;21.13;;;6.93;;
18883;SDS011;9574;47.282;9.640;2022-12-18T05:19:37;21.47;;;7.50;;
18883;SDS011;9574;47.282;9.640;2022-12-18T05:22:05;16.03;;;7.60;;
18883;SDS011;9574;47.282;9.640;2022-12-18T05:24:33;15.73;;;6.67;;
18883;SDS011;9574;47.282;9.640;2022-12-18T05:27:00;19.00;;;7.57;;
18883;SDS011;9574;47.282;9.640;2022-12-18T05:29:27;16.37;;;7.43;;
18883;SDS011;9574;47.282;9.640;2022-12-18T05:31:54;12.73;;;5.60;;
18883;SDS011;9574;47.282;9.640;2022-12-18T05:34:21;11.80;;;6.27;;
18883;SDS011;9574;47.282;9.640;2022-12-18T05:36:48;14.60;;;6.93;;
18883;SDS011;9574;47.282;9.640;2022-12-18T05:39:15;17.40;;;6.53;;
18883;SDS011;9574;47.282;9.640;2022-12-18T05:41:44;15.20;;;7.33;;
18883;SDS011;9574;47.282;9.640;2022-12-18T05:44:11;17.50;;;7.67;;
18883;SDS011;9574;47.282;9.640;2022-12-18T05:46:38;15.10;;;6.90;;
18883;SDS011;9574;47.282;9.640;2022-12-18T05:49:05;14.57;;;7.33;;
18883;SDS011;9574;47.282;9.640;2022-12-18T05:51:32;15.13;;;8.07;;
18883;SDS011;9574;47.282;9.640;2022-12-18T05:53:59;15.67;;;8.47;;
18883;SDS011;9574;47.282;9.640;2022-12-18T05:56:26;22.87;;;8.37;;
18883;SDS011;9574;47.282;9.640;2022-12-18T05:58:54;16.60;;;8.10;;
18883;SDS011;9574;47.282;9.640;2022-12-18T06:01:22;21.00;;;8.63;;
18883;SDS011;9574;47.282;9.640;2022-12-18T06:03:51;15.93;;;7.37;;
18883;SDS011;9574;47.282;9.640;2022-12-18T06:06:19;16.23;;;7.20;;
18883;SDS011;9574;47.282;9.640;2022-12-18T06:08:47;23.80;;;8.40;;
18883;SDS011;9574;47.282;9.640;2022-12-18T06:11:16;25.83;;;6.33;;
18883;SDS011;9574;47.282;9.640;2022-12-18T06:13:44;12.77;;;5.97;;
18883;SDS011;9574;47.282;9.640;2022-12-18T06:16:13;31.33;;;7.33;;
18883;SDS011;9574;47.282;9.640;2022-12-18T06:18:40;13.27;;;6.40;;
18883;SDS011;9574;47.282;9.640;2022-12-18T06:21:07;17.73;;;7.93;;
18883;SDS011;9574;47.282;9.640;2022-12-18T06:23:33;22.83;;;7.13;;
18883;SDS011;9574;47.282;9.640;2022-12-18T06:26:03;18.90;;;7.33;;
18883;SDS011;9574;47.282;9.640;2022-12-18T06:28:31;22.43;;;7.60;;
18883;SDS011;9574;47.282;9.640;2022-12-18T06:30:58;21.50;;;7.17;;
18883;SDS011;9574;47.282;9.640;2022-12-18T06:33:27;15.00;;;6.40;;
18883;SDS011;9574;47.282;9.640;2022-12-18T06:35:54;22.53;;;7.43;;
18883;SDS011;9574;47.282;9.640;2022-12-18T06:38:25;13.37;;;6.03;;
18883;SDS011;9574;47.282;9.640;2022-12-18T06:40:52;32.37;;;6.53;;
18883;SDS011;9574;47.282;9.640;2022-12-18T06:43:19;18.17;;;6.43;;
18883;SDS011;9574;47.282;9.640;2022-12-18T06:45:46;19.07;;;6.47;;
18883;SDS011;9574;47.282;9.640;2022-12-18T06:48:17;20.77;;;7.23;;
18883;SDS011;9574;47.282;9.640;2022-12-18T06:50:46;20.10;;;9.23;;
18883;SDS011;9574;47.282;9.640;2022-12-18T06:53:13;22.10;;;9.47;;
18883;SDS011;9574;47.282;9.640;2022-12-18T06:55:40;22.97;;;6.93;;
18883;SDS011;9574;47.282;9.640;2022-12-18T06:58:07;12.47;;;6.53;;
18883;SDS011;9574;47.282;9.640;2022-12-18T07:00:34;11.87;;;5.53;;
18883;SDS011;9574;47.282;9.640;2022-12-18T07:03:01;14.13;;;7.30;;
18883;SDS011;9574;47.282;9.640;2022-12-18T07:05:28;23.90;;;7.97;;
18883;SDS011;9574;47.282;9.640;2022-12-18T07:07:57;10.50;;;6.33;;
18883;SDS011;9574;47.282;9.640;2022-12-18T07:10:24;14.47;;;7.63;;
18883;SDS011;9574;47.282;9.640;2022-12-18T07:12:52;18.90;;;7.80;;
18883;SDS011;9574;47.282;9.640;2022-12-18T07:15:19;12.27;;;6.37;;
18883;SDS011;9574;47.282;9.640;2022-12-18T07:17:45;19.17;;;9.13;;
18883;SDS011;9574;47.282;9.640;2022-12-18T07:20:12;17.03;;;7.03;;
18883;SDS011;9574;47.282;9.640;2022-12-18T07:22:39;16.90;;;7.83;;
18883;SDS011;9574;47.282;9.640;2022-12-18T07:25:08;20.50;;;8.83;;
18883;SDS011;9574;47.282;9.640;2022-12-18T07:27:35;24.67;;;9.40;;
18883;SDS011;9574;47.282;9.640;2022-12-18T07:30:02;16.47;;;8.43;;
18883;SDS011;9574;47.282;9.640;2022-12-18T07:32:30;20.30;;;8.27;;
18883;SDS011;9574;47.282;9.640;2022-12-18T07:34:57;21.13;;;7.97;;
18883;SDS011;9574;47.282;9.640;2022-12-18T07:37:24;33.77;;;9.20;;
18883;SDS011;9574;47.282;9.640;2022-12-18T07:39:51;22.13;;;8.43;;
18883;SDS011;9574;47.282;9.640;2022-12-18T07:42:19;27.57;;;9.10;;
18883;SDS011;9574;47.282;9.640;2022-12-18T07:44:58;22.30;;;8.97;;
18883;SDS011;9574;47.282;9.640;2022-12-18T07:47:26;34.87;;;8.63;;
18883;SDS011;9574;47.282;9.640;2022-12-18T07:49:53;21.47;;;7.50;;
18883;SDS011;9574;47.282;9.640;2022-12-18T07:52:21;23.57;;;9.03;;
18883;SDS011;9574;47.282;9.640;2022-12-18T07:54:48;30.63;;;7.43;;
18883;SDS011;9574;47.282;9.640;2022-12-18T07:57:15;17.07;;;7.00;;
18883;SDS011;9574;47.282;9.640;2022-12-18T07:59:43;47.57;;;8.63;;
18883;SDS011;9574;47.282;9.640;2022-12-18T08:02:11;26.87;;;6.33;;
18883;SDS011;9574;47.282;9.640;2022-12-18T08:04:38;28.73;;;7.57;;
18883;SDS011;9574;47.282;9.640;2022-12-18T08:07:04;21.37;;;6.00;;
18883;SDS011;9574;47.282;9.640;2022-12-18T08:09:31;27.47;;;6.23;;
18883;SDS011;9574;47.282;9.640;2022-12-18T08:11:58;26.87;;;6.13;;
18883;SDS011;9574;47.282;9.640;2022-12-18T08:14:25;37.43;;;6.47;;
18883;SDS011;9574;47.282;9.640;2022-12-18T08:16:54;19.57;;;7.17;;
18883;SDS011;9574;47.282;9.640;2022-12-18T08:19:21;36.20;;;8.43;;
18883;SDS011;9574;47.282;9.640;2022-12-18T08:21:48;18.90;;;6.70;;
18883;SDS011;9574;47.282;9.640;2022-12-18T08:24:14;27.73;;;8.27;;
18883;SDS011;9574;47.282;9.640;2022-12-18T08:26:41;25.87;;;8.37;;
18883;SDS011;9574;47.282;9.640;2022-12-18T08:29:11;48.23;;;9.30;;
18883;SDS011;9574;47.282;9.640;2022-12-18T08:31:38;23.60;;;8.13;;
18883;SDS011;9574;47.282;9.640;2022-12-18T08:34:07;36.53;;;7.97;;
18883;SDS011;9574;47.282;9.640;2022-12-18T08:36:34;35.20;;;7.37;;
18883;SDS011;9574;47.282;9.640;2022-12-18T08:39:01;31.27;;;8.33;;
18883;SDS011;9574;47.282;9.640;2022-12-18T08:41:28;25.57;;;8.87;;
18883;SDS011;9574;47.282;9.640;2022-12-18T08:43:55;30.70;;;8.80;;
18883;SDS011;9574;47.282;9.640;2022-12-18T08:46:40;24.37;;;7.57;;
18883;SDS011;9574;47.282;9.640;2022-12-18T08:49:10;19.20;;;7.73;;
18883;SDS011;9574;47.282;9.640;2022-12-18T08:51:37;22.00;;;8.03;;
18883;SDS011;9574;47.282;9.640;2022-12-18T08:54:05;20.77;;;7.90;;
18883;SDS011;9574;47.282;9.640;2022-12-18T08:56:33;54.30;;;8.40;;
18883;SDS011;9574;47.282;9.640;2022-12-18T08:59:00;43.70;;;7.70;;
18883;SDS011;9574;47.282;9.640;2022-12-18T09:01:27;19.73;;;7.40;;
18883;SDS011;9574;47.282;9.640;2022-12-18T09:03:54;28.47;;;8.17;;
18883;SDS011;9574;47.282;9.640;2022-12-18T09:06:23;28.77;;;8.33;;
18883;SDS011;9574;47.282;9.640;2022-12-18T09:08:51;28.20;;;8.20;;
18883;SDS011;9574;47.282;9.640;2022-12-18T09:11:20;35.80;;;8.60;;
18883;SDS011;9574;47.282;9.640;2022-12-18T09:13:48;20.77;;;7.27;;
18883;SDS011;9574;47.282;9.640;2022-12-18T09:16:15;18.50;;;7.93;;
18883;SDS011;9574;47.282;9.640;2022-12-18T09:18:43;20.03;;;8.00;;
18883;SDS011;9574;47.282;9.640;2022-12-18T09:21:11;24.53;;;8.13;;
18883;SDS011;9574;47.282;9.640;2022-12-18T09:23:40;31.10;;;9.00;;
18883;SDS011;9574;47.282;9.640;2022-12-18T09:26:08;24.50;;;7.93;;
18883;SDS011;9574;47.282;9.640;2022-12-18T09:28:35;25.73;;;7.60;;
18883;SDS011;9574;47.282;9.640;2022-12-18T09:31:06;28.00;;;8.17;;
18883;SDS011;9574;47.282;9.640;2022-12-18T09:33:34;19.77;;;7.57;;
18883;SDS011;9574;47.282;9.640;2022-12-18T09:36:01;24.90;;;7.57;;
18883;SDS011;9574;47.282;9.640;2022-12-18T09:38:29;22.43;;;7.17;;
18883;SDS011;9574;47.282;9.640;2022-12-18T09:40:59;19.07;;;8.10;;
18883;SDS011;9574;47.282;9.640;2022-12-18T09:43:34;18.67;;;7.07;;
18883;SDS011;9574;47.282;9.640;2022-12-18T09:46:05;13.67;;;5.77;;
18883;SDS011;9574;47.282;9.640;2022-12-18T09:48:35;41.43;;;7.93;;
18883;SDS011;9574;47.282;9.640;2022-12-18T09:51:10;18.93;;;9.43;;
18883;SDS011;9574;47.282;9.640;2022-12-18T09:53:42;20.70;;;8.13;;
18883;SDS011;9574;47.282;9.640;2022-12-18T09:56:15;24.00;;;9.53;;
18883;SDS011;9574;47.282;9.640;2022-12-18T09:58:47;21.50;;;8.33;;
18883;SDS011;9574;47.282;9.640;2022-12-18T10:01:20;18.53;;;8.20;;
18883;SDS011;9574;47.282;9.640;2022-12-18T10:03:49;23.87;;;8.97;;
18883;SDS011;9574;47.282;9.640;2022-12-18T10:06:18;21.00;;;8.10;;
18883;SDS011;9574;47.282;9.640;2022-12-18T10:08:54;20.57;;;8.57;;
18883;SDS011;9574;47.282;9.640;2022-12-18T10:11:30;14.50;;;6.90;;
18883;SDS011;9574;47.282;9.640;2022-12-18T10:14:05;17.87;;;7.07;;
18883;SDS011;9574;47.282;9.640;2022-12-18T10:16:40;18.67;;;8.07;;
18883;SDS011;9574;47.282;9.640;2022-12-18T10:19:17;18.67;;;7.03;;
18883;SDS011;9574;47.282;9.640;2022-12-18T10:21:56;15.13;;;7.27;;
18883;SDS011;9574;47.282;9.640;2022-12-18T10:24:29;22.57;;;10.57;;
18883;SDS011;9574;47.282;9.640;2022-12-18T10:27:04;20.83;;;9.17;;
18883;SDS011;9574;47.282;9.640;2022-12-18T10:29:40;18.87;;;7.70;;
18883;SDS011;9574;47.282;9.640;2022-12-18T10:32:09;21.13;;;8.30;;
18883;SDS011;9574;47.282;9.640;2022-12-18T10:34:41;20.83;;;8.80;;
18883;SDS011;9574;47.282;9.640;2022-12-18T10:37:11;18.23;;;8.03;;
18883;SDS011;9574;47.282;9.640;2022-12-18T10:39:43;18.63;;;8.40;;
18883;SDS011;9574;47.282;9.640;2022-12-18T10:42:16;16.47;;;7.03;;
18883;SDS011;9574;47.282;9.640;2022-12-18T10:44:44;16.67;;;6.63;;
18883;SDS011;9574;47.282;9.640;2022-12-18T10:47:12;21.67;;;9.10;;
18883;SDS011;9574;47.282;9.640;2022-12-18T10:49:42;20.00;;;8.40;;
18883;SDS011;9574;47.282;9.640;2022-12-18T10:52:15;24.60;;;9.83;;
18883;SDS011;9574;47.282;9.640;2022-12-18T10:54:48;31.93;;;8.43;;
18883;SDS011;9574;47.282;9.640;2022-12-18T10:57:28;19.80;;;8.73;;
18883;SDS011;9574;47.282;9.640;2022-12-18T10:59:58;16.17;;;7.53;;
18883;SDS011;9574;47.282;9.640;2022-12-18T11:02:28;24.27;;;9.70;;
18883;SDS011;9574;47.282;9.640;2022-12-18T11:05:00;21.10;;;9.13;;
18883;SDS011;9574;47.282;9.640;2022-12-18T11:07:41;27.07;;;9.47;;
18883;SDS011;9574;47.282;9.640;2022-12-18T11:10:15;23.27;;;11.03;;
18883;SDS011;9574;47.282;9.640;2022-12-18T11:12:45;24.97;;;9.00;;
18883;SDS011;9574;47.282;9.640;2022-12-18T11:15:16;19.23;;;7.53;;
18883;SDS011;9574;47.282;9.640;2022-12-18T11:17:47;21.97;;;9.03;;
18883;SDS011;9574;47.282;9.640;2022-12-18T11:20:24;26.33;;;10.07;;
18883;SDS011;9574;47.282;9.640;2022-12-18T11:22:58;20.67;;;8.77;;
18883;SDS011;9574;47.282;9.640;2022-12-18T11:25:27;19.53;;;9.17;;
18883;SDS011;9574;47.282;9.640;2022-12-18T11:27:56;24.07;;;10.27;;
18883;SDS011;9574;47.282;9.640;2022-12-18T11:30:26;21.70;;;9.30;;
18883;SDS011;9574;47.282;9.640;2022-12-18T11:32:54;19.93;;;8.50;;
18883;SDS011;9574;47.282;9.640;2022-12-18T11:35:26;25.07;;;10.30;;
18883;SDS011;9574;47.282;9.640;2022-12-18T11:38:05;20.13;;;7.77;;
18883;SDS011;9574;47.282;9.640;2022-12-18T11:40:37;19.73;;;8.67;;
18883;SDS011;9574;47.282;9.640;2022-12-18T11:43:09;18.20;;;7.67;;
18883;SDS011;9574;47.282;9.640;2022-12-18T11:45:40;21.13;;;8.80;;
18883;SDS011;9574;47.282;9.640;2022-12-18T11:48:13;21.90;;;8.63;;
18883;SDS011;9574;47.282;9.640;2022-12-18T11:50:46;20.10;;;8.00;;
18883;SDS011;9574;47.282;9.640;2022-12-18T11:53:16;21.37;;;7.80;;
18883;SDS011;9574;47.282;9.640;2022-12-18T11:55:47;18.23;;;8.10;;
18883;SDS011;9574;47.282;9.640;2022-12-18T11:58:26;18.97;;;9.97;;
18883;SDS011;9574;47.282;9.640;2022-12-18T12:03:39;22.93;;;9.97;;
18883;SDS011;9574;47.282;9.640;2022-12-18T12:06:26;19.53;;;7.53;;
18883;SDS011;9574;47.282;9.640;2022-12-18T12:09:04;23.20;;;8.13;;
18883;SDS011;9574;47.282;9.640;2022-12-18T12:11:41;14.47;;;7.40;;
18883;SDS011;9574;47.282;9.640;2022-12-18T12:14:21;20.03;;;7.93;;
18883;SDS011;9574;47.282;9.640;2022-12-18T12:16:59;14.20;;;7.80;;
18883;SDS011;9574;47.282;9.640;2022-12-18T12:19:36;15.23;;;7.10;;
18883;SDS011;9574;47.282;9.640;2022-12-18T12:22:12;15.23;;;6.63;;
18883;SDS011;9574;47.282;9.640;2022-12-18T12:24:49;19.30;;;8.00;;
18883;SDS011;9574;47.282;9.640;2022-12-18T12:27:25;15.83;;;6.87;;
18883;SDS011;9574;47.282;9.640;2022-12-18T12:30:04;19.13;;;7.87;;
18883;SDS011;9574;47.282;9.640;2022-12-18T12:32:37;21.93;;;8.33;;
18883;SDS011;9574;47.282;9.640;2022-12-18T12:35:20;16.60;;;7.60;;
18883;SDS011;9574;47.282;9.640;2022-12-18T12:37:55;22.13;;;9.20;;
18883;SDS011;9574;47.282;9.640;2022-12-18T12:40:32;18.70;;;7.77;;
18883;SDS011;9574;47.282;9.640;2022-12-18T12:43:02;15.03;;;6.77;;
18883;SDS011;9574;47.282;9.640;2022-12-18T12:45:40;19.97;;;7.77;;
18883;SDS011;9574;47.282;9.640;2022-12-18T12:48:15;20.53;;;8.03;;
18883;SDS011;9574;47.282;9.640;2022-12-18T12:50:46;20.77;;;7.87;;
18883;SDS011;9574;47.282;9.640;2022-12-18T12:53:17;16.67;;;6.93;;
18883;SDS011;9574;47.282;9.640;2022-12-18T12:55:53;16.37;;;7.67;;
18883;SDS011;9574;47.282;9.640;2022-12-18T12:58:23;21.67;;;8.27;;
18883;SDS011;9574;47.282;9.640;2022-12-18T13:01:01;21.17;;;8.50;;
18883;SDS011;9574;47.282;9.640;2022-12-18T13:03:42;23.87;;;8.93;;
18883;SDS011;9574;47.282;9.640;2022-12-18T13:06:16;29.10;;;8.70;;
18883;SDS011;9574;47.282;9.640;2022-12-18T13:08:59;18.77;;;7.93;;
18883;SDS011;9574;47.282;9.640;2022-12-18T13:11:32;21.80;;;9.00;;
18883;SDS011;9574;47.282;9.640;2022-12-18T13:14:21;21.80;;;8.70;;
18883;SDS011;9574;47.282;9.640;2022-12-18T13:16:52;19.33;;;7.97;;
18883;SDS011;9574;47.282;9.640;2022-12-18T13:19:43;19.77;;;8.60;;
18883;SDS011;9574;47.282;9.640;2022-12-18T13:22:20;21.50;;;9.17;;
18883;SDS011;9574;47.282;9.640;2022-12-18T13:24:48;19.70;;;8.73;;
18883;SDS011;9574;47.282;9.640;2022-12-18T13:33:40;17.63;;;7.20;;
18883;SDS011;9574;47.282;9.640;2022-12-18T13:36:15;19.07;;;8.37;;
18883;SDS011;9574;47.282;9.640;2022-12-18T13:41:51;21.47;;;7.73;;
18883;SDS011;9574;47.282;9.640;2022-12-18T13:44:26;21.93;;;9.30;;
18883;SDS011;9574;47.282;9.640;2022-12-18T13:46:57;21.20;;;9.60;;
18883;SDS011;9574;47.282;9.640;2022-12-18T13:49:28;24.10;;;9.20;;
18883;SDS011;9574;47.282;9.640;2022-12-18T13:52:02;25.57;;;10.27;;
18883;SDS011;9574;47.282;9.640;2022-12-18T13:54:41;19.27;;;7.83;;
18883;SDS011;9574;47.282;9.640;2022-12-18T13:57:24;18.83;;;7.73;;
18883;SDS011;9574;47.282;9.640;2022-12-18T13:59:53;26.47;;;7.97;;
18883;SDS011;9574;47.282;9.640;2022-12-18T14:02:21;17.83;;;7.97;;
18883;SDS011;9574;47.282;9.640;2022-12-18T14:04:50;19.97;;;9.20;;
18883;SDS011;9574;47.282;9.640;2022-12-18T14:07:19;19.43;;;8.50;;
18883;SDS011;9574;47.282;9.640;2022-12-18T14:09:48;21.97;;;8.93;;
18883;SDS011;9574;47.282;9.640;2022-12-18T14:12:18;23.83;;;10.97;;
18883;SDS011;9574;47.282;9.640;2022-12-18T14:15:14;22.60;;;8.70;;
18883;SDS011;9574;47.282;9.640;2022-12-18T14:17:50;24.30;;;9.93;;
18883;SDS011;9574;47.282;9.640;2022-12-18T14:20:19;28.43;;;10.27;;
18883;SDS011;9574;47.282;9.640;2022-12-18T14:22:48;25.97;;;10.33;;
18883;SDS011;9574;47.282;9.640;2022-12-18T14:25:17;24.13;;;10.67;;
18883;SDS011;9574;47.282;9.640;2022-12-18T14:27:46;19.07;;;9.03;;
18883;SDS011;9574;47.282;9.640;2022-12-18T14:30:26;27.57;;;12.00;;
18883;SDS011;9574;47.282;9.640;2022-12-18T14:33:04;25.70;;;9.43;;
18883;SDS011;9574;47.282;9.640;2022-12-18T14:35:36;22.27;;;8.70;;
18883;SDS011;9574;47.282;9.640;2022-12-18T14:38:18;22.03;;;8.63;;
18883;SDS011;9574;47.282;9.640;2022-12-18T14:40:51;26.33;;;9.70;;
18883;SDS011;9574;47.282;9.640;2022-12-18T14:43:19;23.47;;;9.90;;
18883;SDS011;9574;47.282;9.640;2022-12-18T14:45:47;24.90;;;11.27;;
18883;SDS011;9574;47.282;9.640;2022-12-18T14:48:15;23.33;;;10.17;;
18883;SDS011;9574;47.282;9.640;2022-12-18T14:50:54;23.80;;;8.87;;
18883;SDS011;9574;47.282;9.640;2022-12-18T14:53:31;21.90;;;9.20;;
18883;SDS011;9574;47.282;9.640;2022-12-18T14:56:04;27.60;;;9.37;;
18883;SDS011;9574;47.282;9.640;2022-12-18T14:58:47;21.30;;;9.60;;
18883;SDS011;9574;47.282;9.640;2022-12-18T15:01:19;21.43;;;9.03;;
18883;SDS011;9574;47.282;9.640;2022-12-18T15:03:49;20.60;;;9.20;;
18883;SDS011;9574;47.282;9.640;2022-12-18T15:06:23;20.43;;;8.80;;
18883;SDS011;9574;47.282;9.640;2022-12-18T15:08:57;22.87;;;9.13;;
18883;SDS011;9574;47.282;9.640;2022-12-18T15:11:28;23.93;;;9.40;;
18883;SDS011;9574;47.282;9.640;2022-12-18T15:16:53;23.40;;;9.13;;
18883;SDS011;9574;47.282;9.640;2022-12-18T15:19:21;20.17;;;10.07;;
18883;SDS011;9574;47.282;9.640;2022-12-18T15:21:53;31.47;;;9.63;;
18883;SDS011;9574;47.282;9.640;2022-12-18T15:24:22;25.73;;;9.73;;
18883;SDS011;9574;47.282;9.640;2022-12-18T15:26:53;29.57;;;10.43;;